LIBN

Galatina Air Base

Airport
ICAO code
LIBN
IATA Code
LCC
Summary
ICAO Region
EUR
ICAO Territory
Location

Galatina, Apulia

Serving
Lecce
Elevation
156 ft
Coordinates
40° 14' 25" N , 18° 8' 15" E
KCC
Metar
Observation
LIBN 031855Z 10005KT CAVOK 03/02 Q1023
Station
Lecce
Date/Time
2023-02-03 19:55:00
Wind direction
100°
Wind speed
05 kts
Lowest cloud amount
clouds and visibility OK
Temperature
3°C
Dew point
2°C
Humidity
93%
QNH
1023 hPa
Weather condition
n/a

Galatina Air Base is an airbase near Galatina, south of the city of Lecce in the Apulia (Puglia) region of Italy.

Climatology

Warm mediterranean climate (Köppen climate classification Csa)

Runways

Designator Length Width Surface Rops
14/32 2023 60 ASP No/No

Airport map

Aerial View

SKYbrary Partners:

Safety knowledge contributed by: